Edgewood Park, New York
Current Conditions -  °F | °C
As of 5:00 PM on Monday 20 Oct 2014 (Local Time) from KGTB Reporting Station
Overcast Overcast  
Wind Chill: 52°   Ceiling: 5500
Heat Index: 52°   Visibility: 10mi
Dew Point: 37°   Wind: 8mph
Humidity: 58%   Direction: 220°SW
Pressure: 29.86"   Gusts: NA
Location:  44.3057°N, 75.9374°W
Report Text: KGTB 202100Z AUTO 22007KT 10SM OVC055 11/03 A2986 RMK AO2 DZE2100
Loading
Personal Weather Stations






























Interactive Weather Map
Tropical Storm Tracking
New forecast layout! Learn more

10-Day Weather Forecast

Advertisements
Track Severe Weather on mobile